sensor_id;sensor_type;location;lat;lon;timestamp;P1;durP1;ratioP1;P2;durP2;ratioP2
11791;SDS011;5953;52.372;9.918;2024-03-25T00:01:50;7.27;;;2.30;;
11791;SDS011;5953;52.372;9.918;2024-03-25T00:04:16;8.23;;;2.10;;
11791;SDS011;5953;52.372;9.918;2024-03-25T00:06:43;8.33;;;2.63;;
11791;SDS011;5953;52.372;9.918;2024-03-25T00:09:09;4.60;;;2.00;;
11791;SDS011;5953;52.372;9.918;2024-03-25T00:11:39;4.77;;;1.67;;
11791;SDS011;5953;52.372;9.918;2024-03-25T00:14:05;6.30;;;2.70;;
11791;SDS011;5953;52.372;9.918;2024-03-25T00:16:32;6.20;;;2.00;;
11791;SDS011;5953;52.372;9.918;2024-03-25T00:18:59;7.03;;;1.83;;
11791;SDS011;5953;52.372;9.918;2024-03-25T00:21:26;7.07;;;1.63;;
11791;SDS011;5953;52.372;9.918;2024-03-25T00:23:52;4.17;;;2.00;;
11791;SDS011;5953;52.372;9.918;2024-03-25T00:26:23;7.90;;;1.80;;
11791;SDS011;5953;52.372;9.918;2024-03-25T00:28:49;3.87;;;1.90;;
11791;SDS011;5953;52.372;9.918;2024-03-25T00:31:16;6.23;;;2.07;;
11791;SDS011;5953;52.372;9.918;2024-03-25T00:33:42;4.30;;;1.80;;
11791;SDS011;5953;52.372;9.918;2024-03-25T00:36:10;5.20;;;2.00;;
11791;SDS011;5953;52.372;9.918;2024-03-25T00:38:36;3.80;;;1.50;;
11791;SDS011;5953;52.372;9.918;2024-03-25T00:41:03;5.57;;;2.07;;
11791;SDS011;5953;52.372;9.918;2024-03-25T00:43:29;6.20;;;1.80;;
11791;SDS011;5953;52.372;9.918;2024-03-25T00:45:56;3.83;;;1.77;;
11791;SDS011;5953;52.372;9.918;2024-03-25T00:48:22;5.20;;;1.77;;
11791;SDS011;5953;52.372;9.918;2024-03-25T00:50:51;4.07;;;1.67;;
11791;SDS011;5953;52.372;9.918;2024-03-25T00:53:18;5.47;;;1.70;;
11791;SDS011;5953;52.372;9.918;2024-03-25T00:55:45;3.97;;;1.60;;
11791;SDS011;5953;52.372;9.918;2024-03-25T00:58:11;4.93;;;2.43;;
11791;SDS011;5953;52.372;9.918;2024-03-25T01:00:38;6.83;;;2.23;;
11791;SDS011;5953;52.372;9.918;2024-03-25T01:03:04;5.17;;;1.97;;
11791;SDS011;5953;52.372;9.918;2024-03-25T01:05:31;6.80;;;2.20;;
11791;SDS011;5953;52.372;9.918;2024-03-25T01:07:56;6.00;;;2.03;;
11791;SDS011;5953;52.372;9.918;2024-03-25T01:10:25;6.37;;;2.13;;
11791;SDS011;5953;52.372;9.918;2024-03-25T01:12:51;7.63;;;2.47;;
11791;SDS011;5953;52.372;9.918;2024-03-25T01:15:18;5.83;;;2.07;;
11791;SDS011;5953;52.372;9.918;2024-03-25T01:17:44;5.03;;;2.23;;
11791;SDS011;5953;52.372;9.918;2024-03-25T01:20:10;2.60;;;2.03;;
11791;SDS011;5953;52.372;9.918;2024-03-25T01:22:36;6.43;;;2.60;;
11791;SDS011;5953;52.372;9.918;2024-03-25T01:25:04;5.53;;;1.93;;
11791;SDS011;5953;52.372;9.918;2024-03-25T01:27:33;4.43;;;1.87;;
11791;SDS011;5953;52.372;9.918;2024-03-25T01:30:00;6.53;;;2.40;;
11791;SDS011;5953;52.372;9.918;2024-03-25T01:32:28;5.20;;;2.33;;
11791;SDS011;5953;52.372;9.918;2024-03-25T01:34:55;4.73;;;2.37;;
11791;SDS011;5953;52.372;9.918;2024-03-25T01:37:21;6.60;;;2.10;;
11791;SDS011;5953;52.372;9.918;2024-03-25T01:39:51;9.07;;;3.03;;
11791;SDS011;5953;52.372;9.918;2024-03-25T01:42:17;6.87;;;2.77;;
11791;SDS011;5953;52.372;9.918;2024-03-25T01:44:46;6.37;;;2.70;;
11791;SDS011;5953;52.372;9.918;2024-03-25T01:47:12;7.77;;;2.07;;
11791;SDS011;5953;52.372;9.918;2024-03-25T01:49:39;5.20;;;2.10;;
11791;SDS011;5953;52.372;9.918;2024-03-25T01:52:05;4.57;;;1.97;;
11791;SDS011;5953;52.372;9.918;2024-03-25T01:54:32;6.07;;;2.47;;
11791;SDS011;5953;52.372;9.918;2024-03-25T01:56:59;7.00;;;2.77;;
11791;SDS011;5953;52.372;9.918;2024-03-25T01:59:25;5.90;;;2.47;;
11791;SDS011;5953;52.372;9.918;2024-03-25T02:01:53;4.57;;;2.80;;
11791;SDS011;5953;52.372;9.918;2024-03-25T02:04:22;6.07;;;2.30;;
11791;SDS011;5953;52.372;9.918;2024-03-25T02:06:50;11.80;;;2.77;;
11791;SDS011;5953;52.372;9.918;2024-03-25T02:09:18;6.07;;;2.10;;
11791;SDS011;5953;52.372;9.918;2024-03-25T02:11:44;8.70;;;2.67;;
11791;SDS011;5953;52.372;9.918;2024-03-25T02:14:12;5.73;;;2.40;;
11791;SDS011;5953;52.372;9.918;2024-03-25T02:16:38;8.17;;;2.53;;
11791;SDS011;5953;52.372;9.918;2024-03-25T02:19:06;9.30;;;2.93;;
11791;SDS011;5953;52.372;9.918;2024-03-25T02:21:33;6.20;;;2.50;;
11791;SDS011;5953;52.372;9.918;2024-03-25T02:23:59;7.00;;;2.50;;
11791;SDS011;5953;52.372;9.918;2024-03-25T02:26:28;8.33;;;3.17;;
11791;SDS011;5953;52.372;9.918;2024-03-25T02:28:55;6.87;;;2.10;;
11791;SDS011;5953;52.372;9.918;2024-03-25T02:31:23;7.17;;;2.63;;
11791;SDS011;5953;52.372;9.918;2024-03-25T02:33:50;6.33;;;2.93;;
11791;SDS011;5953;52.372;9.918;2024-03-25T02:36:16;11.37;;;2.30;;
11791;SDS011;5953;52.372;9.918;2024-03-25T02:38:46;8.47;;;2.57;;
11791;SDS011;5953;52.372;9.918;2024-03-25T02:41:12;3.83;;;1.90;;
11791;SDS011;5953;52.372;9.918;2024-03-25T02:43:41;8.00;;;2.80;;
11791;SDS011;5953;52.372;9.918;2024-03-25T02:46:07;8.83;;;2.40;;
11791;SDS011;5953;52.372;9.918;2024-03-25T02:48:34;6.27;;;2.27;;
11791;SDS011;5953;52.372;9.918;2024-03-25T02:51:00;4.60;;;2.47;;
11791;SDS011;5953;52.372;9.918;2024-03-25T02:53:27;6.70;;;2.37;;
11791;SDS011;5953;52.372;9.918;2024-03-25T02:55:53;7.10;;;2.17;;
11791;SDS011;5953;52.372;9.918;2024-03-25T02:58:19;6.17;;;1.90;;
11791;SDS011;5953;52.372;9.918;2024-03-25T03:00:47;7.97;;;2.83;;
11791;SDS011;5953;52.372;9.918;2024-03-25T03:03:13;8.40;;;2.60;;
11791;SDS011;5953;52.372;9.918;2024-03-25T03:05:39;4.60;;;2.67;;
11791;SDS011;5953;52.372;9.918;2024-03-25T03:08:06;5.23;;;1.93;;
11791;SDS011;5953;52.372;9.918;2024-03-25T03:10:32;5.53;;;2.40;;
11791;SDS011;5953;52.372;9.918;2024-03-25T03:12:58;6.77;;;2.50;;
11791;SDS011;5953;52.372;9.918;2024-03-25T03:15:24;7.87;;;2.50;;
11791;SDS011;5953;52.372;9.918;2024-03-25T03:17:56;6.63;;;2.50;;
11791;SDS011;5953;52.372;9.918;2024-03-25T03:20:21;7.43;;;2.20;;
11791;SDS011;5953;52.372;9.918;2024-03-25T03:22:48;7.83;;;2.37;;
11791;SDS011;5953;52.372;9.918;2024-03-25T03:25:14;5.20;;;2.20;;
11791;SDS011;5953;52.372;9.918;2024-03-25T03:27:41;6.63;;;2.23;;
11791;SDS011;5953;52.372;9.918;2024-03-25T03:30:08;6.13;;;2.53;;
11791;SDS011;5953;52.372;9.918;2024-03-25T03:32:38;6.57;;;2.27;;
11791;SDS011;5953;52.372;9.918;2024-03-25T03:35:06;8.27;;;2.70;;
11791;SDS011;5953;52.372;9.918;2024-03-25T03:37:33;6.90;;;2.30;;
11791;SDS011;5953;52.372;9.918;2024-03-25T03:39:59;7.27;;;2.30;;
11791;SDS011;5953;52.372;9.918;2024-03-25T03:42:26;5.30;;;2.13;;
11791;SDS011;5953;52.372;9.918;2024-03-25T03:44:52;7.70;;;2.60;;
11791;SDS011;5953;52.372;9.918;2024-03-25T03:47:20;7.00;;;2.80;;
11791;SDS011;5953;52.372;9.918;2024-03-25T03:49:45;7.33;;;2.20;;
11791;SDS011;5953;52.372;9.918;2024-03-25T03:52:14;4.37;;;1.90;;
11791;SDS011;5953;52.372;9.918;2024-03-25T03:54:39;7.37;;;2.37;;
11791;SDS011;5953;52.372;9.918;2024-03-25T03:57:06;5.67;;;2.33;;
11791;SDS011;5953;52.372;9.918;2024-03-25T03:59:32;5.77;;;2.40;;
11791;SDS011;5953;52.372;9.918;2024-03-25T04:02:01;4.13;;;2.00;;
11791;SDS011;5953;52.372;9.918;2024-03-25T04:04:28;4.47;;;2.63;;
11791;SDS011;5953;52.372;9.918;2024-03-25T04:06:55;4.63;;;1.87;;
11791;SDS011;5953;52.372;9.918;2024-03-25T04:09:22;6.03;;;2.17;;
11791;SDS011;5953;52.372;9.918;2024-03-25T04:11:52;10.50;;;2.33;;
11791;SDS011;5953;52.372;9.918;2024-03-25T04:14:18;7.07;;;2.83;;
11791;SDS011;5953;52.372;9.918;2024-03-25T04:16:44;8.30;;;2.60;;
11791;SDS011;5953;52.372;9.918;2024-03-25T04:19:10;5.33;;;1.80;;
11791;SDS011;5953;52.372;9.918;2024-03-25T04:21:37;9.00;;;2.70;;
11791;SDS011;5953;52.372;9.918;2024-03-25T04:24:03;6.33;;;2.60;;
11791;SDS011;5953;52.372;9.918;2024-03-25T04:26:31;7.13;;;2.40;;
11791;SDS011;5953;52.372;9.918;2024-03-25T04:28:57;5.17;;;2.23;;
11791;SDS011;5953;52.372;9.918;2024-03-25T04:31:23;6.50;;;2.20;;
11791;SDS011;5953;52.372;9.918;2024-03-25T04:33:49;7.30;;;2.53;;
11791;SDS011;5953;52.372;9.918;2024-03-25T04:36:16;8.00;;;2.10;;
11791;SDS011;5953;52.372;9.918;2024-03-25T04:38:42;9.00;;;2.40;;
11791;SDS011;5953;52.372;9.918;2024-03-25T04:41:08;5.53;;;2.10;;
11791;SDS011;5953;52.372;9.918;2024-03-25T04:43:35;4.97;;;1.90;;
11791;SDS011;5953;52.372;9.918;2024-03-25T04:46:01;4.40;;;1.60;;
11791;SDS011;5953;52.372;9.918;2024-03-25T04:48:27;5.40;;;2.10;;
11791;SDS011;5953;52.372;9.918;2024-03-25T04:50:53;3.67;;;1.90;;
11791;SDS011;5953;52.372;9.918;2024-03-25T04:53:19;5.43;;;2.00;;
11791;SDS011;5953;52.372;9.918;2024-03-25T04:55:44;5.77;;;2.53;;
11791;SDS011;5953;52.372;9.918;2024-03-25T04:58:10;7.37;;;2.00;;
11791;SDS011;5953;52.372;9.918;2024-03-25T05:00:37;5.27;;;1.87;;
11791;SDS011;5953;52.372;9.918;2024-03-25T05:03:04;7.37;;;2.30;;
11791;SDS011;5953;52.372;9.918;2024-03-25T05:05:30;5.17;;;2.43;;
11791;SDS011;5953;52.372;9.918;2024-03-25T05:07:56;6.80;;;2.17;;
11791;SDS011;5953;52.372;9.918;2024-03-25T05:10:22;9.43;;;2.60;;
11791;SDS011;5953;52.372;9.918;2024-03-25T05:12:48;6.87;;;2.37;;
11791;SDS011;5953;52.372;9.918;2024-03-25T05:15:14;8.13;;;2.33;;
11791;SDS011;5953;52.372;9.918;2024-03-25T05:17:41;10.57;;;3.13;;
11791;SDS011;5953;52.372;9.918;2024-03-25T05:20:07;10.13;;;2.93;;
11791;SDS011;5953;52.372;9.918;2024-03-25T05:22:34;9.67;;;3.07;;
11791;SDS011;5953;52.372;9.918;2024-03-25T05:25:00;10.07;;;2.57;;
11791;SDS011;5953;52.372;9.918;2024-03-25T05:27:26;12.83;;;3.13;;
11791;SDS011;5953;52.372;9.918;2024-03-25T05:29:55;9.20;;;2.57;;
11791;SDS011;5953;52.372;9.918;2024-03-25T05:32:21;9.63;;;3.30;;
11791;SDS011;5953;52.372;9.918;2024-03-25T05:34:48;8.87;;;3.20;;
11791;SDS011;5953;52.372;9.918;2024-03-25T05:37:17;12.67;;;3.13;;
11791;SDS011;5953;52.372;9.918;2024-03-25T05:39:43;10.10;;;3.67;;
11791;SDS011;5953;52.372;9.918;2024-03-25T05:42:09;9.63;;;2.47;;
11791;SDS011;5953;52.372;9.918;2024-03-25T05:44:35;7.40;;;2.53;;
11791;SDS011;5953;52.372;9.918;2024-03-25T05:47:01;10.10;;;2.93;;
11791;SDS011;5953;52.372;9.918;2024-03-25T05:49:26;11.43;;;3.73;;
11791;SDS011;5953;52.372;9.918;2024-03-25T05:51:56;6.23;;;3.30;;
11791;SDS011;5953;52.372;9.918;2024-03-25T05:54:22;9.13;;;2.70;;
11791;SDS011;5953;52.372;9.918;2024-03-25T05:56:48;7.63;;;2.43;;
11791;SDS011;5953;52.372;9.918;2024-03-25T05:59:14;11.73;;;3.00;;
11791;SDS011;5953;52.372;9.918;2024-03-25T06:01:40;11.63;;;3.00;;
11791;SDS011;5953;52.372;9.918;2024-03-25T06:04:09;12.67;;;3.40;;
11791;SDS011;5953;52.372;9.918;2024-03-25T06:06:35;10.63;;;2.93;;
11791;SDS011;5953;52.372;9.918;2024-03-25T06:09:02;10.80;;;3.03;;
11791;SDS011;5953;52.372;9.918;2024-03-25T06:11:28;12.90;;;3.20;;
11791;SDS011;5953;52.372;9.918;2024-03-25T06:13:54;8.17;;;2.70;;
11791;SDS011;5953;52.372;9.918;2024-03-25T06:16:20;9.87;;;2.73;;
11791;SDS011;5953;52.372;9.918;2024-03-25T06:18:46;9.53;;;3.00;;
11791;SDS011;5953;52.372;9.918;2024-03-25T06:21:11;13.30;;;3.30;;
11791;SDS011;5953;52.372;9.918;2024-03-25T06:23:37;11.30;;;2.90;;
11791;SDS011;5953;52.372;9.918;2024-03-25T06:26:05;9.73;;;2.93;;
11791;SDS011;5953;52.372;9.918;2024-03-25T06:28:30;10.37;;;2.80;;
11791;SDS011;5953;52.372;9.918;2024-03-25T06:30:56;8.80;;;2.90;;
11791;SDS011;5953;52.372;9.918;2024-03-25T06:33:41;9.43;;;2.70;;
11791;SDS011;5953;52.372;9.918;2024-03-25T06:36:25;13.60;;;2.97;;
11791;SDS011;5953;52.372;9.918;2024-03-25T06:38:51;14.97;;;3.43;;
11791;SDS011;5953;52.372;9.918;2024-03-25T06:41:18;11.63;;;2.97;;
11791;SDS011;5953;52.372;9.918;2024-03-25T06:43:44;11.30;;;2.43;;
11791;SDS011;5953;52.372;9.918;2024-03-25T06:46:10;10.27;;;3.23;;
11791;SDS011;5953;52.372;9.918;2024-03-25T06:48:36;5.10;;;2.47;;
11791;SDS011;5953;52.372;9.918;2024-03-25T06:51:02;9.27;;;2.30;;
11791;SDS011;5953;52.372;9.918;2024-03-25T06:53:32;16.03;;;3.00;;
11791;SDS011;5953;52.372;9.918;2024-03-25T06:55:58;11.83;;;3.27;;
11791;SDS011;5953;52.372;9.918;2024-03-25T06:58:26;14.20;;;2.73;;
11791;SDS011;5953;52.372;9.918;2024-03-25T07:00:53;7.83;;;2.70;;
11791;SDS011;5953;52.372;9.918;2024-03-25T07:03:20;11.93;;;3.57;;
11791;SDS011;5953;52.372;9.918;2024-03-25T07:05:47;9.03;;;3.43;;
11791;SDS011;5953;52.372;9.918;2024-03-25T07:08:14;15.07;;;4.27;;
11791;SDS011;5953;52.372;9.918;2024-03-25T07:10:41;8.20;;;2.63;;
11791;SDS011;5953;52.372;9.918;2024-03-25T07:13:07;10.23;;;3.53;;
11791;SDS011;5953;52.372;9.918;2024-03-25T07:15:35;7.70;;;3.23;;
11791;SDS011;5953;52.372;9.918;2024-03-25T07:18:04;8.27;;;2.83;;
11791;SDS011;5953;52.372;9.918;2024-03-25T07:20:32;12.13;;;2.30;;
11791;SDS011;5953;52.372;9.918;2024-03-25T07:22:59;13.63;;;3.33;;
11791;SDS011;5953;52.372;9.918;2024-03-25T07:25:25;9.23;;;2.90;;
11791;SDS011;5953;52.372;9.918;2024-03-25T07:27:51;11.87;;;2.83;;
11791;SDS011;5953;52.372;9.918;2024-03-25T07:30:18;16.30;;;2.93;;
11791;SDS011;5953;52.372;9.918;2024-03-25T07:32:45;11.43;;;3.13;;
11791;SDS011;5953;52.372;9.918;2024-03-25T07:35:11;14.83;;;3.23;;
11791;SDS011;5953;52.372;9.918;2024-03-25T07:37:37;9.33;;;2.30;;
11791;SDS011;5953;52.372;9.918;2024-03-25T07:40:03;11.33;;;3.43;;
11791;SDS011;5953;52.372;9.918;2024-03-25T07:42:30;11.63;;;2.60;;
11791;SDS011;5953;52.372;9.918;2024-03-25T07:44:56;16.63;;;3.27;;
11791;SDS011;5953;52.372;9.918;2024-03-25T07:47:22;10.03;;;3.43;;
11791;SDS011;5953;52.372;9.918;2024-03-25T07:49:49;10.70;;;2.77;;
11791;SDS011;5953;52.372;9.918;2024-03-25T07:52:15;15.53;;;4.10;;
11791;SDS011;5953;52.372;9.918;2024-03-25T07:54:41;13.60;;;3.40;;
11791;SDS011;5953;52.372;9.918;2024-03-25T07:57:07;13.73;;;2.87;;
11791;SDS011;5953;52.372;9.918;2024-03-25T07:59:33;14.17;;;3.63;;
11791;SDS011;5953;52.372;9.918;2024-03-25T08:01:59;11.53;;;3.20;;
11791;SDS011;5953;52.372;9.918;2024-03-25T08:04:25;8.63;;;3.17;;
11791;SDS011;5953;52.372;9.918;2024-03-25T08:06:52;12.30;;;3.03;;
11791;SDS011;5953;52.372;9.918;2024-03-25T08:09:18;7.90;;;2.43;;
11791;SDS011;5953;52.372;9.918;2024-03-25T08:11:44;11.50;;;3.63;;
11791;SDS011;5953;52.372;9.918;2024-03-25T08:14:13;9.30;;;2.60;;
11791;SDS011;5953;52.372;9.918;2024-03-25T08:16:39;10.70;;;3.03;;
11791;SDS011;5953;52.372;9.918;2024-03-25T08:19:05;10.67;;;3.00;;
11791;SDS011;5953;52.372;9.918;2024-03-25T08:21:31;11.37;;;2.60;;
11791;SDS011;5953;52.372;9.918;2024-03-25T08:23:59;7.20;;;2.17;;
11791;SDS011;5953;52.372;9.918;2024-03-25T08:26:24;14.20;;;2.80;;
11791;SDS011;5953;52.372;9.918;2024-03-25T08:28:51;13.57;;;3.37;;
11791;SDS011;5953;52.372;9.918;2024-03-25T08:31:17;11.63;;;2.90;;
11791;SDS011;5953;52.372;9.918;2024-03-25T08:33:43;11.80;;;3.17;;
11791;SDS011;5953;52.372;9.918;2024-03-25T08:36:09;12.47;;;3.03;;
11791;SDS011;5953;52.372;9.918;2024-03-25T08:38:35;10.73;;;3.63;;
11791;SDS011;5953;52.372;9.918;2024-03-25T08:41:02;10.10;;;2.60;;
11791;SDS011;5953;52.372;9.918;2024-03-25T08:43:28;9.80;;;2.80;;
11791;SDS011;5953;52.372;9.918;2024-03-25T08:45:54;9.63;;;2.50;;
11791;SDS011;5953;52.372;9.918;2024-03-25T08:48:20;10.80;;;2.80;;
11791;SDS011;5953;52.372;9.918;2024-03-25T08:50:46;9.50;;;3.43;;
11791;SDS011;5953;52.372;9.918;2024-03-25T08:53:12;10.10;;;3.17;;
11791;SDS011;5953;52.372;9.918;2024-03-25T08:55:43;10.47;;;3.37;;
11791;SDS011;5953;52.372;9.918;2024-03-25T08:58:13;8.23;;;2.93;;
11791;SDS011;5953;52.372;9.918;2024-03-25T09:00:42;9.53;;;3.50;;
11791;SDS011;5953;52.372;9.918;2024-03-25T09:03:08;9.27;;;3.13;;
11791;SDS011;5953;52.372;9.918;2024-03-25T09:05:38;13.47;;;2.80;;
11791;SDS011;5953;52.372;9.918;2024-03-25T09:08:04;11.97;;;2.73;;
11791;SDS011;5953;52.372;9.918;2024-03-25T09:10:31;12.20;;;2.67;;
11791;SDS011;5953;52.372;9.918;2024-03-25T09:13:19;11.57;;;2.27;;
11791;SDS011;5953;52.372;9.918;2024-03-25T09:15:45;14.63;;;2.53;;
11791;SDS011;5953;52.372;9.918;2024-03-25T09:18:11;8.33;;;2.27;;
11791;SDS011;5953;52.372;9.918;2024-03-25T09:20:39;11.30;;;2.60;;
11791;SDS011;5953;52.372;9.918;2024-03-25T09:23:05;9.27;;;2.73;;
11791;SDS011;5953;52.372;9.918;2024-03-25T09:25:31;9.53;;;3.03;;
11791;SDS011;5953;52.372;9.918;2024-03-25T09:27:57;8.33;;;2.70;;
11791;SDS011;5953;52.372;9.918;2024-03-25T09:30:24;3.63;;;1.93;;
11791;SDS011;5953;52.372;9.918;2024-03-25T09:32:50;7.83;;;2.10;;
11791;SDS011;5953;52.372;9.918;2024-03-25T09:35:16;13.77;;;2.30;;
11791;SDS011;5953;52.372;9.918;2024-03-25T09:37:42;8.70;;;2.20;;
11791;SDS011;5953;52.372;9.918;2024-03-25T09:40:08;9.33;;;2.87;;
11791;SDS011;5953;52.372;9.918;2024-03-25T09:42:36;7.47;;;2.90;;
11791;SDS011;5953;52.372;9.918;2024-03-25T09:45:08;7.93;;;2.57;;
11791;SDS011;5953;52.372;9.918;2024-03-25T09:47:36;8.77;;;2.47;;
11791;SDS011;5953;52.372;9.918;2024-03-25T09:50:05;8.10;;;2.57;;
11791;SDS011;5953;52.372;9.918;2024-03-25T09:52:32;9.53;;;2.30;;
11791;SDS011;5953;52.372;9.918;2024-03-25T09:54:58;12.33;;;2.60;;
11791;SDS011;5953;52.372;9.918;2024-03-25T09:57:24;8.03;;;1.73;;
11791;SDS011;5953;52.372;9.918;2024-03-25T09:59:51;7.67;;;2.13;;
11791;SDS011;5953;52.372;9.918;2024-03-25T10:02:17;6.33;;;2.20;;
11791;SDS011;5953;52.372;9.918;2024-03-25T10:04:45;7.57;;;1.97;;
11791;SDS011;5953;52.372;9.918;2024-03-25T10:07:21;5.00;;;1.77;;
11791;SDS011;5953;52.372;9.918;2024-03-25T10:09:48;9.80;;;2.03;;
11791;SDS011;5953;52.372;9.918;2024-03-25T10:12:15;4.97;;;1.77;;
11791;SDS011;5953;52.372;9.918;2024-03-25T10:14:41;5.50;;;1.30;;
11791;SDS011;5953;52.372;9.918;2024-03-25T10:17:07;2.83;;;1.30;;
11791;SDS011;5953;52.372;9.918;2024-03-25T10:19:33;5.73;;;1.90;;
11791;SDS011;5953;52.372;9.918;2024-03-25T10:22:04;2.27;;;1.27;;
11791;SDS011;5953;52.372;9.918;2024-03-25T10:24:40;5.47;;;1.43;;
11791;SDS011;5953;52.372;9.918;2024-03-25T10:27:10;8.80;;;1.87;;
11791;SDS011;5953;52.372;9.918;2024-03-25T10:29:37;4.73;;;1.63;;
11791;SDS011;5953;52.372;9.918;2024-03-25T10:32:03;8.77;;;1.87;;
11791;SDS011;5953;52.372;9.918;2024-03-25T10:34:29;4.43;;;1.57;;
11791;SDS011;5953;52.372;9.918;2024-03-25T10:36:56;5.83;;;1.73;;
11791;SDS011;5953;52.372;9.918;2024-03-25T10:39:28;8.60;;;1.80;;
11791;SDS011;5953;52.372;9.918;2024-03-25T10:41:57;8.43;;;2.00;;
11791;SDS011;5953;52.372;9.918;2024-03-25T10:44:28;7.23;;;1.50;;
11791;SDS011;5953;52.372;9.918;2024-03-25T10:46:57;4.13;;;1.50;;
11791;SDS011;5953;52.372;9.918;2024-03-25T10:49:31;5.17;;;1.10;;
11791;SDS011;5953;52.372;9.918;2024-03-25T10:52:00;7.43;;;1.37;;
11791;SDS011;5953;52.372;9.918;2024-03-25T10:54:30;8.00;;;2.13;;
11791;SDS011;5953;52.372;9.918;2024-03-25T10:56:57;6.30;;;1.67;;
11791;SDS011;5953;52.372;9.918;2024-03-25T10:59:24;8.23;;;2.00;;
11791;SDS011;5953;52.372;9.918;2024-03-25T11:01:51;7.57;;;1.77;;
11791;SDS011;5953;52.372;9.918;2024-03-25T11:04:17;4.07;;;1.47;;
11791;SDS011;5953;52.372;9.918;2024-03-25T11:06:44;6.43;;;1.70;;
11791;SDS011;5953;52.372;9.918;2024-03-25T11:09:10;6.67;;;1.97;;
11791;SDS011;5953;52.372;9.918;2024-03-25T11:11:39;9.77;;;1.63;;
11791;SDS011;5953;52.372;9.918;2024-03-25T11:14:14;4.27;;;1.60;;
11791;SDS011;5953;52.372;9.918;2024-03-25T11:16:50;5.77;;;2.20;;
11791;SDS011;5953;52.372;9.918;2024-03-25T11:19:17;6.83;;;1.73;;
11791;SDS011;5953;52.372;9.918;2024-03-25T11:21:43;5.13;;;1.43;;
11791;SDS011;5953;52.372;9.918;2024-03-25T11:24:09;10.00;;;1.70;;
11791;SDS011;5953;52.372;9.918;2024-03-25T11:26:51;6.47;;;1.57;;
11791;SDS011;5953;52.372;9.918;2024-03-25T11:29:20;4.23;;;1.40;;
11791;SDS011;5953;52.372;9.918;2024-03-25T11:31:47;12.70;;;1.93;;
11791;SDS011;5953;52.372;9.918;2024-03-25T11:34:15;5.13;;;1.77;;
11791;SDS011;5953;52.372;9.918;2024-03-25T11:36:41;6.57;;;1.80;;
11791;SDS011;5953;52.372;9.918;2024-03-25T11:39:07;9.67;;;2.23;;
11791;SDS011;5953;52.372;9.918;2024-03-25T11:41:34;8.70;;;2.10;;
11791;SDS011;5953;52.372;9.918;2024-03-25T11:44:06;8.53;;;2.43;;
11791;SDS011;5953;52.372;9.918;2024-03-25T11:46:35;8.87;;;2.83;;
11791;SDS011;5953;52.372;9.918;2024-03-25T11:49:05;8.57;;;1.93;;
11791;SDS011;5953;52.372;9.918;2024-03-25T11:51:32;5.67;;;1.87;;
11791;SDS011;5953;52.372;9.918;2024-03-25T11:53:58;7.27;;;2.03;;
11791;SDS011;5953;52.372;9.918;2024-03-25T11:56:24;4.87;;;1.70;;
11791;SDS011;5953;52.372;9.918;2024-03-25T11:58:50;9.10;;;2.40;;
11791;SDS011;5953;52.372;9.918;2024-03-25T12:01:18;8.00;;;1.60;;
11791;SDS011;5953;52.372;9.918;2024-03-25T12:03:44;6.10;;;1.63;;
11791;SDS011;5953;52.372;9.918;2024-03-25T12:06:09;8.53;;;2.33;;
11791;SDS011;5953;52.372;9.918;2024-03-25T12:08:38;7.10;;;1.50;;
11791;SDS011;5953;52.372;9.918;2024-03-25T12:11:07;8.77;;;2.03;;
11791;SDS011;5953;52.372;9.918;2024-03-25T12:13:44;2.60;;;1.50;;
11791;SDS011;5953;52.372;9.918;2024-03-25T12:16:10;5.90;;;1.63;;
11791;SDS011;5953;52.372;9.918;2024-03-25T12:18:39;8.93;;;2.03;;
11791;SDS011;5953;52.372;9.918;2024-03-25T12:21:06;8.50;;;2.40;;
11791;SDS011;5953;52.372;9.918;2024-03-25T12:23:32;5.67;;;1.83;;
11791;SDS011;5953;52.372;9.918;2024-03-25T12:25:58;5.93;;;1.97;;
11791;SDS011;5953;52.372;9.918;2024-03-25T12:28:24;5.57;;;2.27;;
11791;SDS011;5953;52.372;9.918;2024-03-25T12:30:51;8.07;;;1.80;;
11791;SDS011;5953;52.372;9.918;2024-03-25T12:33:17;10.87;;;1.77;;
11791;SDS011;5953;52.372;9.918;2024-03-25T12:35:46;5.27;;;1.57;;
11791;SDS011;5953;52.372;9.918;2024-03-25T12:38:25;3.93;;;1.70;;
11791;SDS011;5953;52.372;9.918;2024-03-25T12:40:51;9.13;;;2.50;;
11791;SDS011;5953;52.372;9.918;2024-03-25T12:43:17;7.57;;;2.13;;
11791;SDS011;5953;52.372;9.918;2024-03-25T12:45:43;6.03;;;1.40;;
11791;SDS011;5953;52.372;9.918;2024-03-25T12:48:09;8.53;;;1.87;;
11791;SDS011;5953;52.372;9.918;2024-03-25T12:50:35;11.63;;;1.87;;
11791;SDS011;5953;52.372;9.918;2024-03-25T12:53:06;6.10;;;1.70;;
11791;SDS011;5953;52.372;9.918;2024-03-25T12:55:32;7.43;;;1.90;;
11791;SDS011;5953;52.372;9.918;2024-03-25T12:57:57;5.07;;;1.77;;
11791;SDS011;5953;52.372;9.918;2024-03-25T13:00:24;5.57;;;1.40;;
11791;SDS011;5953;52.372;9.918;2024-03-25T13:02:49;6.83;;;1.83;;
11791;SDS011;5953;52.372;9.918;2024-03-25T13:05:15;9.00;;;1.97;;
11791;SDS011;5953;52.372;9.918;2024-03-25T13:07:41;6.63;;;1.60;;
11791;SDS011;5953;52.372;9.918;2024-03-25T13:10:09;4.90;;;1.30;;
11791;SDS011;5953;52.372;9.918;2024-03-25T13:12:35;5.33;;;1.67;;
11791;SDS011;5953;52.372;9.918;2024-03-25T13:15:01;4.90;;;1.43;;
11791;SDS011;5953;52.372;9.918;2024-03-25T13:17:26;5.10;;;1.40;;
11791;SDS011;5953;52.372;9.918;2024-03-25T13:19:53;3.50;;;1.67;;
11791;SDS011;5953;52.372;9.918;2024-03-25T13:22:19;5.10;;;2.20;;
11791;SDS011;5953;52.372;9.918;2024-03-25T13:24:45;5.53;;;1.67;;
11791;SDS011;5953;52.372;9.918;2024-03-25T13:27:12;4.93;;;1.80;;
11791;SDS011;5953;52.372;9.918;2024-03-25T13:29:42;4.07;;;1.90;;
11791;SDS011;5953;52.372;9.918;2024-03-25T13:32:08;5.70;;;1.13;;
11791;SDS011;5953;52.372;9.918;2024-03-25T13:34:33;4.20;;;1.23;;
11791;SDS011;5953;52.372;9.918;2024-03-25T13:36:59;4.73;;;1.60;;
11791;SDS011;5953;52.372;9.918;2024-03-25T13:39:31;3.83;;;1.50;;
11791;SDS011;5953;52.372;9.918;2024-03-25T13:42:12;3.27;;;1.43;;
11791;SDS011;5953;52.372;9.918;2024-03-25T13:44:39;5.63;;;1.60;;
11791;SDS011;5953;52.372;9.918;2024-03-25T13:47:05;5.70;;;2.20;;
11791;SDS011;5953;52.372;9.918;2024-03-25T13:49:32;5.70;;;1.40;;
11791;SDS011;5953;52.372;9.918;2024-03-25T13:51:59;3.10;;;1.13;;
11791;SDS011;5953;52.372;9.918;2024-03-25T13:54:26;5.90;;;1.60;;
11791;SDS011;5953;52.372;9.918;2024-03-25T13:56:52;9.33;;;1.50;;
11791;SDS011;5953;52.372;9.918;2024-03-25T13:59:19;3.60;;;1.20;;
11791;SDS011;5953;52.372;9.918;2024-03-25T14:01:46;4.67;;;1.50;;
11791;SDS011;5953;52.372;9.918;2024-03-25T14:04:12;4.33;;;1.53;;
11791;SDS011;5953;52.372;9.918;2024-03-25T14:06:38;5.77;;;1.30;;
11791;SDS011;5953;52.372;9.918;2024-03-25T14:09:04;4.23;;;1.67;;
11791;SDS011;5953;52.372;9.918;2024-03-25T14:11:30;3.30;;;1.07;;
11791;SDS011;5953;52.372;9.918;2024-03-25T14:13:56;5.40;;;1.67;;
11791;SDS011;5953;52.372;9.918;2024-03-25T14:16:23;6.10;;;1.77;;
11791;SDS011;5953;52.372;9.918;2024-03-25T14:18:49;4.57;;;1.40;;
11791;SDS011;5953;52.372;9.918;2024-03-25T14:21:15;3.70;;;1.63;;
11791;SDS011;5953;52.372;9.918;2024-03-25T14:23:41;4.37;;;1.50;;
11791;SDS011;5953;52.372;9.918;2024-03-25T14:26:06;6.33;;;1.50;;
11791;SDS011;5953;52.372;9.918;2024-03-25T14:28:34;7.23;;;1.67;;
11791;SDS011;5953;52.372;9.918;2024-03-25T14:31:00;3.13;;;1.50;;
11791;SDS011;5953;52.372;9.918;2024-03-25T14:33:27;2.63;;;1.17;;
11791;SDS011;5953;52.372;9.918;2024-03-25T14:35:53;6.90;;;1.50;;
11791;SDS011;5953;52.372;9.918;2024-03-25T14:38:19;3.23;;;1.30;;
11791;SDS011;5953;52.372;9.918;2024-03-25T14:40:46;7.67;;;1.43;;
11791;SDS011;5953;52.372;9.918;2024-03-25T14:43:12;3.10;;;1.30;;
11791;SDS011;5953;52.372;9.918;2024-03-25T14:45:40;7.20;;;1.83;;
11791;SDS011;5953;52.372;9.918;2024-03-25T14:48:06;4.23;;;1.37;;
11791;SDS011;5953;52.372;9.918;2024-03-25T14:50:37;2.27;;;1.07;;
11791;SDS011;5953;52.372;9.918;2024-03-25T14:53:03;3.23;;;0.97;;
11791;SDS011;5953;52.372;9.918;2024-03-25T14:55:29;4.77;;;1.63;;
11791;SDS011;5953;52.372;9.918;2024-03-25T14:57:57;6.13;;;1.47;;